Time;durP1;ratioP1;P1;durP2;ratioP2;P2;SDS_P1;SDS_P2;PMS_P1;PMS_P2;Temp;Humidity;BMP_temperature;BMP_pressure;BME280_temperature;BME280_humidity;BME280_pressure;Samples;Min_cycle;Max_cycle;Signal;HPM_P1;HPM_P2
2021/11/06 00:01:58;;;;;;;34.53;21.30;;;3.10;52.70;;;;;;5119222;27;20062;-71
2021/11/06 00:04:27;;;;;;;40.13;23.77;;;3.10;52.80;;;;;;5124054;27;20143;-71
2021/11/06 00:06:55;;;;;;;57.00;25.98;;;3.10;53.30;;;;;;5111662;27;20059;-71
2021/11/06 00:09:24;;;;;;;56.05;24.35;;;3.30;54.00;;;;;;5122661;27;20427;-71
2021/11/06 00:11:54;;;;;;;92.63;27.73;;;3.20;53.80;;;;;;5125050;27;20035;-71
2021/11/06 00:14:27;;;;;;;50.40;25.95;;;3.30;54.10;;;;;;5118657;27;20119;-71
2021/11/06 00:16:56;;;;;;;65.55;28.13;;;3.30;54.30;;;;;;5103580;27;20528;-71
2021/11/06 00:19:25;;;;;;;65.85;28.20;;;3.30;54.40;;;;;;5120525;27;20039;-70
2021/11/06 00:21:54;;;;;;;60.50;28.95;;;3.30;54.60;;;;;;5123795;27;21549;-71
2021/11/06 00:24:22;;;;;;;60.22;29.77;;;3.40;55.00;;;;;;5121440;27;20062;-71
2021/11/06 00:26:51;;;;;;;62.45;29.60;;;3.50;55.50;;;;;;5120413;27;20051;-71
2021/11/06 00:29:21;;;;;;;66.18;29.95;;;3.50;55.70;;;;;;5123953;27;20589;-71
2021/11/06 00:31:50;;;;;;;80.28;31.08;;;3.60;56.00;;;;;;5088647;27;20408;-71
2021/11/06 00:34:18;;;;;;;111.85;32.42;;;3.80;56.40;;;;;;5115775;27;20043;-71
2021/11/06 00:36:46;;;;;;;55.28;27.15;;;3.70;56.50;;;;;;5120015;27;20506;-71
2021/11/06 00:39:14;;;;;;;62.63;27.83;;;3.80;56.80;;;;;;5088341;27;20096;-72
2021/11/06 00:41:42;;;;;;;64.63;28.30;;;3.90;57.00;;;;;;5119710;27;20096;-71
2021/11/06 00:44:10;;;;;;;56.72;26.73;;;3.90;57.00;;;;;;5116621;27;20478;-71
2021/11/06 00:46:43;;;;;;;52.92;25.90;;;3.80;57.00;;;;;;5118643;27;20043;-71
2021/11/06 00:49:12;;;;;;;54.72;26.00;;;3.70;56.90;;;;;;5121963;27;20058;-70
2021/11/06 00:51:45;;;;;;;49.78;23.05;;;3.80;57.00;;;;;;5124232;27;20043;-70
2021/11/06 00:54:14;;;;;;;41.58;24.48;;;3.80;57.10;;;;;;5117935;27;20035;-71
2021/11/06 00:56:43;;;;;;;40.85;21.35;;;3.70;57.00;;;;;;5118034;27;20059;-71
2021/11/06 00:59:11;;;;;;;38.67;21.25;;;3.60;56.90;;;;;;5124037;27;20040;-71
2021/11/06 01:01:44;;;;;;;38.00;22.27;;;3.60;57.00;;;;;;5124675;27;20130;-71
2021/11/06 01:04:12;;;;;;;36.70;20.38;;;3.50;56.90;;;;;;5119673;27;20047;-71
2021/11/06 01:06:41;;;;;;;33.28;20.48;;;3.50;56.90;;;;;;5124164;27;20135;-71
2021/11/06 01:09:11;;;;;;;30.25;19.67;;;3.50;56.90;;;;;;5128353;27;20067;-72
2021/11/06 01:11:40;;;;;;;33.00;20.38;;;3.50;56.90;;;;;;5121501;27;20055;-71
2021/11/06 01:14:13;;;;;;;30.88;18.65;;;3.40;56.80;;;;;;5107567;27;20039;-71
2021/11/06 01:16:47;;;;;;;29.95;18.85;;;3.30;56.70;;;;;;5122904;27;20509;-72
2021/11/06 01:19:15;;;;;;;30.48;17.77;;;3.20;56.60;;;;;;5117356;27;20047;-72
2021/11/06 01:21:43;;;;;;;31.35;19.80;;;3.20;56.60;;;;;;5125896;27;20134;-71
2021/11/06 01:24:11;;;;;;;31.88;19.00;;;3.10;56.60;;;;;;5103844;27;20076;-70
2021/11/06 01:26:41;;;;;;;76.18;23.65;;;3.00;56.40;;;;;;5120131;27;20047;-72
2021/11/06 01:29:12;;;;;;;53.42;21.65;;;2.90;56.30;;;;;;5082490;27;20123;-71
2021/11/06 01:31:42;;;;;;;59.67;22.92;;;2.80;56.20;;;;;;5102142;27;20043;-72
2021/11/06 01:34:12;;;;;;;104.70;26.63;;;2.80;56.20;;;;;;5125384;27;20047;-71
2021/11/06 01:36:44;;;;;;;47.80;22.80;;;3.00;56.40;;;;;;5123186;27;20047;-71
2021/11/06 01:39:15;;;;;;;60.97;23.27;;;3.00;56.40;;;;;;5129470;27;20135;-71
2021/11/06 01:41:48;;;;;;;37.38;22.05;;;3.00;56.40;;;;;;5127542;27;20043;-71
2021/11/06 01:44:16;;;;;;;34.70;20.65;;;3.00;56.50;;;;;;5127746;27;20039;-71
2021/11/06 01:46:46;;;;;;;34.58;20.92;;;3.10;56.60;;;;;;5133732;27;20530;-71
2021/11/06 01:49:20;;;;;;;34.80;19.92;;;3.20;56.70;;;;;;5110103;27;20414;-72
2021/11/06 01:51:48;;;;;;;46.25;23.10;;;3.30;56.80;;;;;;5127554;27;20096;-71
2021/11/06 01:54:17;;;;;;;67.63;24.80;;;3.30;56.80;;;;;;5127840;27;20126;-72
2021/11/06 01:56:45;;;;;;;53.90;22.38;;;3.30;56.80;;;;;;5126909;27;20062;-72
2021/11/06 01:59:14;;;;;;;59.10;23.38;;;3.40;56.90;;;;;;5125830;27;20071;-72
2021/11/06 02:01:43;;;;;;;53.00;21.83;;;3.40;56.90;;;;;;5128529;27;20118;-72
2021/11/06 02:04:11;;;;;;;110.78;26.17;;;3.50;57.00;;;;;;5126138;27;20276;-72
2021/11/06 02:06:44;;;;;;;91.55;28.55;;;3.40;56.90;;;;;;5123596;27;20142;-72
2021/11/06 02:09:13;;;;;;;83.38;24.52;;;3.40;56.90;;;;;;5132893;27;20066;-72
2021/11/06 02:11:43;;;;;;;70.50;25.13;;;3.50;57.00;;;;;;5126775;27;20054;-72
2021/11/06 02:14:14;;;;;;;51.38;24.48;;;3.50;57.00;;;;;;5125002;27;20043;-72
2021/11/06 02:16:42;;;;;;;56.28;24.88;;;3.50;57.00;;;;;;5123800;27;20079;-72
2021/11/06 02:19:10;;;;;;;161.63;28.40;;;3.50;57.00;;;;;;5125695;27;20043;-72
2021/11/06 02:21:40;;;;;;;95.85;23.65;;;3.40;56.90;;;;;;5091510;27;20075;-72
2021/11/06 02:24:10;;;;;;;83.10;24.90;;;3.40;57.00;;;;;;5124153;27;20463;-72
2021/11/06 02:26:38;;;;;;;99.18;27.08;;;3.50;57.00;;;;;;5103864;27;20054;-72
2021/11/06 02:29:20;;;;;;;91.22;27.38;;;3.40;57.10;;;;;;5127685;27;20049;-72
2021/11/06 02:31:53;;;;;;;52.35;23.10;;;3.40;57.00;;;;;;5126632;27;20171;-72
2021/11/06 02:34:21;;;;;;;62.88;22.92;;;3.20;57.00;;;;;;5124094;27;20225;-72
2021/11/06 02:36:51;;;;;;;69.85;24.45;;;3.10;56.90;;;;;;5131040;27;20046;-72
2021/11/06 02:39:23;;;;;;;86.97;24.55;;;3.10;56.70;;;;;;5129060;27;20486;-72
2021/11/06 02:41:59;;;;;;;43.20;22.23;;;3.30;56.90;;;;;;5098648;27;20043;-72
2021/11/06 02:44:27;;;;;;;295.13;41.45;;;3.30;57.20;;;;;;5123540;27;20503;-71
2021/11/06 02:47:00;;;;;;;160.85;29.73;;;3.30;57.30;;;;;;5123369;27;20047;-72
2021/11/06 02:49:32;;;;;;;121.10;26.88;;;3.40;57.30;;;;;;5123394;27;20047;-72
2021/11/06 02:52:02;;;;;;;107.97;29.05;;;3.20;57.00;;;;;;5130105;27;20043;-71
2021/11/06 02:54:31;;;;;;;147.35;27.85;;;3.20;56.90;;;;;;5122735;27;20489;-70
2021/11/06 02:57:01;;;;;;;119.10;29.60;;;3.10;56.80;;;;;;5126951;27;20043;-71
2021/11/06 02:59:33;;;;;;;108.20;27.27;;;3.20;56.80;;;;;;5124592;27;20039;-70
2021/11/06 03:02:03;;;;;;;120.65;28.25;;;3.30;57.00;;;;;;5127974;27;20131;-71
2021/11/06 03:04:36;;;;;;;94.80;27.77;;;3.40;57.40;;;;;;5105249;27;20044;-71
2021/11/06 03:07:06;;;;;;;77.95;25.50;;;3.30;57.50;;;;;;5119784;27;20111;-71
2021/11/06 03:09:37;;;;;;;201.55;34.55;;;3.40;57.30;;;;;;5124381;27;20132;-72
2021/11/06 03:12:07;;;;;;;148.30;28.70;;;3.30;57.50;;;;;;5125854;27;20043;-72
2021/11/06 03:14:37;;;;;;;69.40;25.55;;;3.40;57.50;;;;;;5123851;27;20044;-72
2021/11/06 03:17:07;;;;;;;124.18;28.17;;;3.40;57.40;;;;;;5101123;27;20067;-71
2021/11/06 03:19:35;;;;;;;113.00;25.70;;;3.30;57.60;;;;;;5125718;27;20154;-71
2021/11/06 03:22:11;;;;;;;91.72;26.83;;;3.20;57.30;;;;;;5129545;27;20508;-72
2021/11/06 03:24:46;;;;;;;72.35;25.70;;;3.30;57.30;;;;;;5107700;27;20043;-72
2021/11/06 03:27:20;;;;;;;105.22;26.35;;;3.30;57.40;;;;;;5125953;27;20040;-71
2021/11/06 03:29:49;;;;;;;134.93;28.90;;;3.40;57.40;;;;;;5105739;27;20135;-71
2021/11/06 03:32:19;;;;;;;75.05;25.08;;;3.40;57.50;;;;;;5110880;27;20059;-72
2021/11/06 03:34:48;;;;;;;138.13;30.02;;;3.40;57.70;;;;;;5121384;27;20085;-72
2021/11/06 03:37:18;;;;;;;158.38;29.67;;;3.50;57.80;;;;;;5122471;27;20650;-72
2021/11/06 03:39:46;;;;;;;139.60;30.00;;;3.60;57.90;;;;;;5128484;27;20051;-72
2021/11/06 03:42:14;;;;;;;119.47;28.17;;;3.60;58.00;;;;;;5124578;27;20039;-72
2021/11/06 03:44:47;;;;;;;126.75;28.55;;;3.50;57.90;;;;;;5125182;27;20043;-72
2021/11/06 03:47:15;;;;;;;300.48;37.63;;;3.50;57.90;;;;;;5122003;27;20131;-72
2021/11/06 03:49:43;;;;;;;297.77;34.97;;;3.50;57.90;;;;;;5107757;28;20061;-72
2021/11/06 03:52:12;;;;;;;250.40;35.97;;;3.60;57.70;;;;;;5129345;27;20134;-72
2021/11/06 03:54:44;;;;;;;574.65;57.33;;;3.70;57.80;;;;;;5128493;27;20038;-72
2021/11/06 03:57:18;;;;;;;493.98;45.75;;;3.80;58.10;;;;;;5123802;27;20470;-72
2021/11/06 03:59:46;;;;;;;255.85;32.53;;;3.70;58.30;;;;;;5101760;28;20101;-72
2021/11/06 04:02:17;;;;;;;217.18;32.67;;;3.80;58.40;;;;;;5124002;27;20112;-71
2021/11/06 04:04:51;;;;;;;198.95;34.10;;;3.70;58.50;;;;;;5121086;28;20039;-71
2021/11/06 04:07:19;;;;;;;207.50;30.42;;;3.70;58.50;;;;;;5117313;28;20142;-71
2021/11/06 04:09:52;;;;;;;360.40;38.15;;;3.70;58.40;;;;;;5125779;27;20047;-71
2021/11/06 04:12:22;;;;;;;276.08;37.92;;;3.70;58.40;;;;;;5098202;28;20066;-71
2021/11/06 04:14:53;;;;;;;87.88;25.52;;;3.80;58.80;;;;;;5117951;27;20118;-71
2021/11/06 04:17:21;;;;;;;167.45;31.55;;;3.80;59.10;;;;;;5121072;27;20503;-71
2021/11/06 04:19:49;;;;;;;131.50;26.73;;;3.70;59.10;;;;;;5119123;28;20598;-71
2021/11/06 04:22:23;;;;;;;88.13;24.70;;;3.70;59.40;;;;;;5121848;27;21246;-71
2021/11/06 04:24:58;;;;;;;226.50;30.63;;;3.80;59.70;;;;;;5115808;27;20031;-71
2021/11/06 04:27:30;;;;;;;120.28;26.90;;;3.70;60.00;;;;;;5118314;28;20057;-71
2021/11/06 04:30:03;;;;;;;165.32;29.08;;;3.70;60.10;;;;;;5114229;27;20035;-70
2021/11/06 04:32:33;;;;;;;160.57;28.02;;;3.50;60.10;;;;;;5121909;27;20052;-72
2021/11/06 04:35:01;;;;;;;146.85;26.98;;;3.50;60.10;;;;;;5118129;28;20058;-72
2021/11/06 04:37:30;;;;;;;179.13;28.05;;;3.60;60.10;;;;;;5115627;27;20062;-72
2021/11/06 04:39:59;;;;;;;146.68;29.23;;;3.70;60.30;;;;;;5121365;28;20050;-71
2021/11/06 04:42:28;;;;;;;108.15;24.98;;;3.70;60.60;;;;;;5113512;28;20475;-71
2021/11/06 04:44:57;;;;;;;194.05;31.67;;;3.70;60.90;;;;;;5113430;28;20068;-71
2021/11/06 04:47:27;;;;;;;119.60;25.65;;;3.70;61.00;;;;;;5122574;27;20431;-72
2021/11/06 04:49:57;;;;;;;202.80;28.65;;;3.70;61.10;;;;;;5096839;28;20035;-71
2021/11/06 04:52:27;;;;;;;122.57;25.85;;;3.70;61.10;;;;;;5125826;27;20047;-71
2021/11/06 04:54:56;;;;;;;89.85;25.08;;;3.80;61.10;;;;;;5117946;27;20108;-72
2021/11/06 04:57:25;;;;;;;117.90;27.58;;;3.70;61.10;;;;;;5118845;27;20470;-71
2021/11/06 04:59:56;;;;;;;88.38;22.65;;;3.70;61.10;;;;;;5126405;27;20046;-71
2021/11/06 05:02:24;;;;;;;311.50;34.28;;;3.70;61.10;;;;;;5121985;27;20051;-71
2021/11/06 05:04:52;;;;;;;93.50;23.95;;;3.70;61.10;;;;;;5120666;27;20502;-71
2021/11/06 05:07:24;;;;;;;365.20;40.55;;;3.70;61.10;;;;;;5127202;27;20051;-71
2021/11/06 05:09:53;;;;;;;172.23;28.67;;;3.70;61.10;;;;;;5123649;27;20047;-70
2021/11/06 05:12:24;;;;;;;327.00;33.95;;;3.80;61.10;;;;;;5101130;27;20051;-71
2021/11/06 05:14:54;;;;;;;306.35;34.35;;;3.70;61.70;;;;;;5127152;27;20066;-71
2021/11/06 05:17:25;;;;;;;640.90;68.78;;;3.70;61.10;;;;;;5122483;27;20128;-71
2021/11/06 05:19:57;;;;;;;233.93;31.50;;;3.70;61.10;;;;;;5121704;27;20537;-70
2021/11/06 05:22:25;;;;;;;170.52;31.20;;;3.80;61.30;;;;;;5123135;27;20125;-71
2021/11/06 05:24:56;;;;;;;233.00;32.13;;;3.80;61.80;;;;;;5103388;27;20387;-71
2021/11/06 05:27:26;;;;;;;322.40;34.50;;;3.90;62.50;;;;;;5120477;27;20035;-71
2021/11/06 05:29:59;;;;;;;295.00;35.50;;;3.80;61.70;;;;;;5122583;27;20112;-71
2021/11/06 05:32:27;;;;;;;185.90;29.40;;;3.90;61.80;;;;;;5120081;27;20422;-71
2021/11/06 05:34:57;;;;;;;221.90;31.77;;;3.80;62.00;;;;;;5123536;27;20031;-71
2021/11/06 05:37:25;;;;;;;190.13;32.42;;;3.70;62.10;;;;;;5117960;27;20043;-71
2021/11/06 05:39:53;;;;;;;363.38;36.72;;;3.80;62.00;;;;;;5119598;27;20047;-71
2021/11/06 05:42:26;;;;;;;262.33;33.75;;;3.90;62.10;;;;;;5117890;27;20049;-71
2021/11/06 05:44:54;;;;;;;325.23;37.00;;;3.80;62.10;;;;;;5124297;27;20571;-70
2021/11/06 05:47:23;;;;;;;218.18;30.02;;;3.80;62.20;;;;;;5119405;27;20039;-71
2021/11/06 05:49:58;;;;;;;242.40;31.92;;;3.80;62.30;;;;;;5122898;27;20052;-71
2021/11/06 05:52:35;;;;;;;292.70;30.80;;;3.80;62.30;;;;;;5125704;27;20577;-71
2021/11/06 05:55:03;;;;;;;181.55;30.17;;;3.80;62.30;;;;;;5117164;27;20036;-70
2021/11/06 05:57:36;;;;;;;197.43;31.27;;;3.80;62.40;;;;;;5121942;27;20048;-70
2021/11/06 06:00:07;;;;;;;249.75;29.88;;;3.80;62.20;;;;;;5120940;27;20130;-70
2021/11/06 06:02:35;;;;;;;237.90;31.10;;;3.80;62.30;;;;;;5120857;27;20134;-72
2021/11/06 06:05:03;;;;;;;158.57;25.60;;;3.70;62.70;;;;;;5130594;27;20049;-69
2021/11/06 06:07:34;;;;;;;159.07;27.08;;;3.70;62.80;;;;;;5118596;27;20043;-70
2021/11/06 06:10:05;;;;;;;210.45;28.23;;;3.80;62.50;;;;;;5117164;27;20058;-70
2021/11/06 06:12:36;;;;;;;231.75;28.02;;;3.70;62.70;;;;;;5101669;27;20144;-71
2021/11/06 06:15:06;;;;;;;147.75;26.85;;;3.60;62.80;;;;;;5124578;27;20119;-71
2021/11/06 06:17:37;;;;;;;245.77;28.38;;;3.60;62.60;;;;;;5120731;27;20127;-70
2021/11/06 06:20:07;;;;;;;322.80;32.90;;;3.60;62.50;;;;;;5126905;27;20484;-70
2021/11/06 06:22:35;;;;;;;126.85;23.75;;;3.60;62.60;;;;;;5120512;27;20098;-70
2021/11/06 06:25:07;;;;;;;175.77;26.42;;;3.60;62.40;;;;;;5122979;27;20043;-70
2021/11/06 06:27:37;;;;;;;259.25;27.38;;;3.70;62.30;;;;;;5106310;27;20620;-70
2021/11/06 06:30:07;;;;;;;160.98;25.92;;;3.60;62.60;;;;;;5120981;27;20039;-70
2021/11/06 06:32:39;;;;;;;158.73;25.20;;;3.60;62.60;;;;;;5120180;27;20055;-70
2021/11/06 06:35:09;;;;;;;221.73;28.40;;;3.60;62.60;;;;;;5104371;27;20035;-70
2021/11/06 06:37:39;;;;;;;199.10;28.42;;;3.60;62.80;;;;;;5099458;27;20035;-71
2021/11/06 06:40:10;;;;;;;146.48;27.00;;;3.60;62.80;;;;;;5123726;27;20069;-71
2021/11/06 06:42:42;;;;;;;167.15;29.77;;;3.60;62.60;;;;;;5120717;27;20070;-71
2021/11/06 06:45:10;;;;;;;212.98;30.63;;;3.70;62.80;;;;;;5119548;27;20126;-71
2021/11/06 06:47:40;;;;;;;132.80;26.45;;;3.70;62.90;;;;;;5122796;27;20079;-71
2021/11/06 06:50:10;;;;;;;125.28;26.85;;;3.80;62.90;;;;;;5120528;27;20121;-71
2021/11/06 06:52:40;;;;;;;81.50;25.50;;;3.80;63.10;;;;;;5116902;27;20058;-71
2021/11/06 06:55:13;;;;;;;109.60;24.13;;;3.80;63.60;;;;;;5121987;27;20068;-72
2021/11/06 06:57:44;;;;;;;59.97;23.27;;;3.80;63.30;;;;;;5120854;27;20563;-70
2021/11/06 07:00:14;;;;;;;65.38;23.85;;;3.80;63.30;;;;;;5124374;27;20135;-71
2021/11/06 07:02:42;;;;;;;79.00;24.95;;;3.80;63.60;;;;;;5125673;27;20141;-71
2021/11/06 07:05:12;;;;;;;83.13;23.90;;;3.90;63.80;;;;;;5117877;27;20614;-71
2021/11/06 07:07:43;;;;;;;86.32;23.38;;;3.70;63.90;;;;;;5101872;27;20071;-72
2021/11/06 07:10:11;;;;;;;59.25;21.20;;;3.80;63.90;;;;;;5124999;27;20050;-72
2021/11/06 07:12:45;;;;;;;79.75;20.88;;;3.90;63.80;;;;;;5116351;27;20239;-72
2021/11/06 07:15:18;;;;;;;70.35;20.40;;;4.00;64.20;;;;;;5117370;27;20054;-69
2021/11/06 07:17:50;;;;;;;115.72;24.05;;;3.80;64.10;;;;;;5120825;27;20079;-70
2021/11/06 07:20:20;;;;;;;82.22;21.85;;;3.80;64.10;;;;;;5121818;27;20092;-71
2021/11/06 07:22:49;;;;;;;92.70;21.77;;;3.90;64.10;;;;;;5122359;27;20091;-71
2021/11/06 07:25:18;;;;;;;219.57;29.95;;;3.80;64.00;;;;;;5121484;27;20131;-72
2021/11/06 07:27:52;;;;;;;56.75;20.73;;;3.90;64.00;;;;;;5118436;27;20042;-71
2021/11/06 07:30:21;;;;;;;72.25;21.85;;;4.00;64.40;;;;;;5084999;28;20134;-71
2021/11/06 07:32:50;;;;;;;68.38;21.45;;;3.90;64.20;;;;;;5120678;27;20313;-71
2021/11/06 07:35:19;;;;;;;77.65;20.08;;;3.90;64.50;;;;;;5118817;27;20069;-70
2021/11/06 07:37:47;;;;;;;81.82;19.02;;;3.90;64.50;;;;;;5101906;27;20201;-70
2021/11/06 07:40:16;;;;;;;62.13;18.88;;;3.80;64.40;;;;;;5117820;27;20085;-70
2021/11/06 07:42:47;;;;;;;49.22;17.08;;;3.90;64.40;;;;;;5114413;27;20042;-70
2021/11/06 07:45:19;;;;;;;46.63;17.15;;;3.90;64.30;;;;;;5117391;27;20054;-71
2021/11/06 07:47:47;;;;;;;59.13;19.13;;;3.80;64.40;;;;;;5117677;27;20047;-71
2021/11/06 07:50:20;;;;;;;54.72;18.55;;;3.80;64.50;;;;;;5116999;27;20525;-71
2021/11/06 07:52:48;;;;;;;57.60;18.33;;;4.00;64.60;;;;;;5125225;27;20126;-72
2021/11/06 07:55:16;;;;;;;69.85;20.30;;;4.00;64.80;;;;;;5118043;27;20110;-70
2021/11/06 07:57:46;;;;;;;72.72;20.77;;;4.00;64.70;;;;;;5120029;27;20035;-70
2021/11/06 08:00:18;;;;;;;75.05;19.63;;;4.00;64.50;;;;;;5120477;28;20047;-70
2021/11/06 08:02:47;;;;;;;68.50;18.58;;;3.90;64.30;;;;;;5118835;27;20521;-71
2021/11/06 08:05:18;;;;;;;76.40;20.15;;;3.90;64.00;;;;;;5100995;28;20490;-71
2021/11/06 08:07:48;;;;;;;52.40;19.67;;;4.10;64.10;;;;;;5118997;27;20046;-71
2021/11/06 08:10:17;;;;;;;87.22;18.50;;;4.10;64.10;;;;;;5118029;27;20050;-71
2021/11/06 08:12:49;;;;;;;86.32;19.35;;;4.10;63.90;;;;;;5117266;27;20054;-71
2021/11/06 08:15:21;;;;;;;56.70;19.27;;;3.90;63.70;;;;;;5114669;28;20142;-71
2021/11/06 08:17:53;;;;;;;65.30;19.92;;;4.30;64.00;;;;;;5113499;27;20101;-71
2021/11/06 08:20:22;;;;;;;48.88;19.75;;;4.20;64.00;;;;;;5115066;27;20081;-71
2021/11/06 08:22:50;;;;;;;80.15;20.05;;;4.30;64.00;;;;;;5113178;28;20490;-71
2021/11/06 08:25:20;;;;;;;71.28;20.55;;;4.10;63.80;;;;;;5118660;27;20118;-71
2021/11/06 08:27:50;;;;;;;63.38;19.92;;;4.10;63.70;;;;;;5115973;27;20449;-71
2021/11/06 08:30:23;;;;;;;63.75;20.88;;;4.10;63.70;;;;;;5122203;27;20042;-72
2021/11/06 08:32:58;;;;;;;73.20;20.95;;;4.20;63.70;;;;;;5120558;27;20069;-72
2021/11/06 08:35:30;;;;;;;59.67;20.63;;;4.20;63.20;;;;;;5124243;27;20090;-72
2021/11/06 08:38:01;;;;;;;58.00;19.38;;;4.40;63.50;;;;;;5110191;27;20161;-71
2021/11/06 08:40:29;;;;;;;54.80;19.38;;;4.50;63.10;;;;;;5120942;27;20048;-71
2021/11/06 08:42:58;;;;;;;62.30;20.45;;;4.60;63.00;;;;;;5119554;27;20534;-71
2021/11/06 08:45:28;;;;;;;42.00;18.83;;;4.60;62.20;;;;;;5116428;27;20051;-71
2021/11/06 08:47:59;;;;;;;60.78;21.30;;;4.70;62.40;;;;;;5117715;27;20459;-72
2021/11/06 08:50:28;;;;;;;43.95;18.75;;;4.60;61.90;;;;;;5122754;27;20139;-71
2021/11/06 08:52:57;;;;;;;102.13;22.92;;;4.80;62.00;;;;;;5117324;27;20043;-72
2021/11/06 08:55:31;;;;;;;57.97;20.13;;;4.80;60.60;;;;;;5123280;27;20107;-71
2021/11/06 08:58:00;;;;;;;49.03;20.58;;;4.60;59.70;;;;;;5117356;27;20065;-72
2021/11/06 09:00:37;;;;;;;93.32;21.63;;;4.70;58.70;;;;;;5103102;27;20499;-72
2021/11/06 09:03:16;;;;;;;72.25;22.08;;;4.40;58.00;;;;;;5081504;27;20096;-70
2021/11/06 09:05:50;;;;;;;43.17;20.85;;;4.60;58.10;;;;;;5122299;27;20039;-71
2021/11/06 09:08:26;;;;;;;47.92;21.23;;;4.70;58.00;;;;;;5119773;27;20043;-71
2021/11/06 09:10:57;;;;;;;39.58;17.85;;;4.70;57.20;;;;;;5118398;27;20130;-71
2021/11/06 09:13:30;;;;;;;46.00;19.77;;;4.60;57.30;;;;;;5114952;27;20095;-73
2021/11/06 09:16:05;;;;;;;47.40;18.33;;;4.60;55.30;;;;;;5117647;27;20086;-70
2021/11/06 09:18:34;;;;;;;43.50;20.42;;;4.70;57.30;;;;;;5127502;27;20474;-71
2021/11/06 09:21:08;;;;;;;39.72;19.17;;;4.80;56.50;;;;;;5115486;27;20516;-72
2021/11/06 09:23:40;;;;;;;39.13;18.75;;;4.80;54.50;;;;;;5114018;27;20046;-71
2021/11/06 09:26:09;;;;;;;42.30;18.38;;;4.90;55.20;;;;;;5109727;27;20483;-71
2021/11/06 09:28:41;;;;;;;44.25;19.17;;;5.10;52.90;;;;;;5109193;27;20062;-72
2021/11/06 09:31:12;;;;;;;39.10;18.65;;;5.10;53.20;;;;;;5116564;27;20047;-71
2021/11/06 09:33:43;;;;;;;36.50;18.45;;;5.10;52.40;;;;;;5098100;27;20039;-72
2021/11/06 09:36:18;;;;;;;40.88;18.33;;;5.10;50.00;;;;;;5079281;27;20039;-73
2021/11/06 09:38:47;;;;;;;38.17;19.40;;;5.00;50.30;;;;;;5099932;27;20028;-72
2021/11/06 09:41:17;;;;;;;36.95;18.45;;;5.20;50.90;;;;;;5118674;27;20036;-70
2021/11/06 09:43:46;;;;;;;36.83;19.08;;;5.10;48.60;;;;;;5113566;27;20526;-71
2021/11/06 09:46:18;;;;;;;38.17;17.75;;;5.20;49.90;;;;;;5118057;27;20035;-72
2021/11/06 09:48:49;;;;;;;41.70;18.17;;;5.10;48.60;;;;;;5121561;27;20126;-72
2021/11/06 09:51:22;;;;;;;38.53;19.48;;;5.20;49.00;;;;;;5116994;27;20043;-72
2021/11/06 09:53:56;;;;;;;39.30;18.17;;;5.50;49.90;;;;;;5116955;27;20513;-71
2021/11/06 09:56:29;;;;;;;35.20;18.35;;;5.20;43.80;;;;;;5121263;27;20411;-71
2021/11/06 09:59:00;;;;;;;35.20;18.40;;;5.30;46.50;;;;;;5118710;27;20039;-71
2021/11/06 10:01:33;;;;;;;34.63;17.27;;;5.30;46.60;;;;;;5107018;27;20126;-71
2021/11/06 10:04:07;;;;;;;37.85;19.08;;;5.40;45.00;;;;;;5121513;27;20047;-71
2021/11/06 10:06:43;;;;;;;39.95;18.73;;;5.20;41.70;;;;;;5121655;27;20063;-71
2021/11/06 10:09:14;;;;;;;32.83;17.00;;;5.40;44.40;;;;;;5124053;27;20031;-72
2021/11/06 10:11:46;;;;;;;37.47;18.13;;;5.50;44.90;;;;;;5124915;27;20445;-71
2021/11/06 10:14:19;;;;;;;37.55;17.60;;;5.30;44.80;;;;;;5122323;27;20092;-71
2021/11/06 10:16:55;;;;;;;42.25;17.77;;;5.20;45.20;;;;;;5124785;27;20040;-72
2021/11/06 10:19:29;;;;;;;65.20;28.20;;;5.10;44.10;;;;;;5117562;27;20046;-71
2021/11/06 10:22:07;;;;;;;52.13;23.00;;;5.10;46.20;;;;;;5123758;27;20525;-71
2021/11/06 10:24:41;;;;;;;38.35;20.27;;;5.20;46.50;;;;;;5125535;27;20039;-70
2021/11/06 10:27:15;;;;;;;37.92;18.13;;;5.50;46.90;;;;;;5123732;27;20047;-71
2021/11/06 10:30:08;;;;;;;40.42;19.73;;;5.60;44.90;;;;;;5119206;27;20039;-71
2021/11/06 10:32:38;;;;;;;40.55;18.63;;;5.70;44.40;;;;;;5117635;27;20047;-71
2021/11/06 10:35:14;;;;;;;38.63;18.05;;;5.60;43.70;;;;;;5123351;27;20401;-71
2021/11/06 10:37:45;;;;;;;41.30;19.77;;;5.80;44.40;;;;;;5114101;27;20040;-72
2021/11/06 10:40:13;;;;;;;40.83;18.70;;;5.80;41.50;;;;;;5129091;27;20520;-70
2021/11/06 10:42:50;;;;;;;37.90;18.67;;;5.80;45.30;;;;;;5120419;27;20051;-70
2021/11/06 10:45:21;;;;;;;42.05;20.35;;;5.70;42.80;;;;;;5116433;27;20105;-71
2021/11/06 10:47:57;;;;;;;35.90;19.27;;;5.70;45.40;;;;;;5107338;27;20048;-71
2021/11/06 10:50:53;;;;;;;38.67;19.20;;;6.10;44.50;;;;;;5119845;27;20406;-71
2021/11/06 10:53:41;;;;;;;35.00;18.98;;;6.30;42.50;;;;;;5114790;27;20126;-71
2021/11/06 10:56:28;;;;;;;37.38;19.48;;;6.00;37.70;;;;;;5124875;27;20455;-70
2021/11/06 10:59:02;;;;;;;37.45;19.33;;;6.00;40.00;;;;;;5130390;27;20039;-70
2021/11/06 11:01:33;;;;;;;39.28;19.08;;;6.10;41.60;;;;;;5119488;27;20039;-71
2021/11/06 11:04:07;;;;;;;40.03;20.15;;;6.10;41.90;;;;;;5114030;27;20049;-71
2021/11/06 11:06:45;;;;;;;40.70;19.80;;;6.10;43.20;;;;;;5118711;27;20039;-71
2021/11/06 11:09:15;;;;;;;41.58;20.08;;;6.20;43.20;;;;;;5115707;27;20059;-71
2021/11/06 11:11:47;;;;;;;42.77;20.07;;;5.70;40.50;;;;;;5115358;27;20142;-70
2021/11/06 11:14:21;;;;;;;51.03;21.83;;;5.80;44.80;;;;;;5121421;27;20328;-71
2021/11/06 11:16:56;;;;;;;40.45;20.23;;;6.10;45.10;;;;;;5100061;27;20043;-70
2021/11/06 11:19:35;;;;;;;47.60;21.27;;;6.30;43.40;;;;;;5115659;27;20122;-72
2021/11/06 11:22:23;;;;;;;40.70;20.55;;;6.20;40.60;;;;;;5124139;27;20139;-71
2021/11/06 11:24:55;;;;;;;43.35;21.42;;;6.60;41.70;;;;;;5118511;27;20487;-72
2021/11/06 11:27:48;;;;;;;47.63;22.50;;;6.00;37.70;;;;;;5116455;27;20421;-71
2021/11/06 11:30:20;;;;;;;42.90;22.52;;;6.00;43.00;;;;;;5108714;27;20099;-71
2021/11/06 11:32:49;;;;;;;44.25;22.08;;;6.50;44.30;;;;;;5126310;27;20070;-71
2021/11/06 11:35:18;;;;;;;45.50;23.23;;;6.30;39.10;;;;;;5118773;27;20131;-71
2021/11/06 11:37:49;;;;;;;42.50;21.25;;;6.40;40.80;;;;;;5099527;27;20047;-71
2021/11/06 11:40:17;;;;;;;45.17;22.00;;;6.60;40.70;;;;;;5121766;27;20036;-71
2021/11/06 11:43:10;;;;;;;41.97;21.77;;;6.60;37.30;;;;;;5115270;27;20055;-71
2021/11/06 11:45:46;;;;;;;43.83;22.80;;;6.50;33.70;;;;;;5095519;28;20043;-71
2021/11/06 11:48:22;;;;;;;41.63;22.00;;;6.90;37.90;;;;;;5122630;27;20047;-71
2021/11/06 11:51:00;;;;;;;46.03;23.55;;;6.50;33.00;;;;;;5117732;27;20035;-70
2021/11/06 11:53:30;;;;;;;49.38;23.75;;;6.60;36.30;;;;;;5096083;28;20043;-70
2021/11/06 11:56:05;;;;;;;44.35;23.00;;;6.80;38.30;;;;;;5100527;27;20399;-71
2021/11/06 11:58:39;;;;;;;43.63;23.40;;;7.10;35.60;;;;;;5097195;28;20146;-70
2021/11/06 12:01:20;;;;;;;44.40;23.40;;;7.20;34.70;;;;;;5125139;27;20092;-71
2021/11/06 12:03:53;;;;;;;45.45;23.42;;;7.40;33.80;;;;;;5121518;27;20051;-71
2021/11/06 12:06:28;;;;;;;44.95;23.10;;;7.00;30.90;;;;;;5118025;27;20043;-71
2021/11/06 12:09:19;;;;;;;41.83;22.40;;;7.10;34.20;;;;;;5129807;27;20146;-70
2021/11/06 12:11:48;;;;;;;51.28;25.38;;;6.90;32.40;;;;;;5127181;27;20088;-71
2021/11/06 12:14:22;;;;;;;43.80;23.88;;;6.80;32.50;;;;;;5123120;27;20039;-71
2021/11/06 12:16:57;;;;;;;45.13;23.85;;;6.60;34.30;;;;;;5127906;27;20090;-71
2021/11/06 12:19:38;;;;;;;49.05;24.50;;;6.70;34.50;;;;;;5124523;27;20084;-71
2021/11/06 12:22:10;;;;;;;42.75;22.60;;;6.50;36.60;;;;;;5116354;27;20063;-71
2021/11/06 12:24:42;;;;;;;42.65;24.00;;;6.60;35.20;;;;;;5108226;27;20118;-71
2021/11/06 12:27:16;;;;;;;48.95;26.08;;;7.00;35.50;;;;;;5121225;27;20047;-72
2021/11/06 12:29:52;;;;;;;46.45;25.65;;;7.00;34.00;;;;;;5124052;27;20105;-72
2021/11/06 12:32:31;;;;;;;45.03;23.50;;;7.30;32.70;;;;;;5124041;27;20135;-71
2021/11/06 12:35:01;;;;;;;41.15;23.25;;;7.20;29.30;;;;;;5105259;27;20065;-71
2021/11/06 12:38:02;;;;;;;42.03;22.65;;;7.00;29.70;;;;;;5118360;27;20414;-71
2021/11/06 12:40:37;;;;;;;43.20;24.52;;;7.10;29.20;;;;;;5106333;27;20094;-71
2021/11/06 12:43:15;;;;;;;47.42;25.63;;;7.20;31.00;;;;;;5124173;27;20039;-72
2021/11/06 12:45:46;;;;;;;44.70;24.70;;;7.10;29.40;;;;;;5119764;27;20047;-71
2021/11/06 12:48:43;;;;;;;44.28;24.45;;;7.20;31.70;;;;;;5126943;27;20039;-71
2021/11/06 12:51:15;;;;;;;41.97;23.15;;;7.40;31.10;;;;;;5132395;27;20043;-71
2021/11/06 12:53:51;;;;;;;40.22;23.15;;;7.30;29.60;;;;;;5116660;27;20039;-72
2021/11/06 12:56:25;;;;;;;42.67;23.75;;;7.40;29.30;;;;;;5124623;27;20118;-71